Terminal Aerodrome Forecast
Issued by NWS Portland, OR

Home | Current Version | Previous Version | Text Only | Print | Product List | Glossary On
Versions: 1 2 3 4 5 6 7 8 9 10 11 12 13 14 15 16 17 18 19 20 21 22 23 24 25 26 27 28
235
FTUS46 KPQR 141727
TAFTTD
TAF
KTTD 141727Z 1418/1518 09020G30KT P6SM SCT250
     FM150000 09020G30KT P6SM SCT250
     FM150600 09015G25KT P6SM SCT200
     FM151700 09010KT P6SM OVC025=

USA.gov is the U.S. government's official web portal to all federal, state and local government web resources and services.